Abell, MD

10:12 PM EDT on October 20, 2014 (GMT -0400)
Notley Hall Farm | Change Station
CLOSE
Current Station
Personal Weather Station
Location: Chaptico, MD
Elevation: 20 ft
Nearby Weather Stations

Elev 20 ft 38.31 °N, 76.82 °W | Updated 45 seconds ago

Partly Cloudy
Partly Cloudy
58.2 °F
Feels Like 58.2 °F
N
0.0
Wind Variable Wind from North
Gusts 0.0 mph

Today
High -- | Low -- °F
--% Chance of Precip.
Yesterday
High -- | Low -- °F
Precip. -- in
7:20 AM 6:22 PM
Waning Crescent, 8% visible
Pressure 29.99 in
Visibility 10.0 miles
Clouds Clear
Dew Point 47 °F
Humidity 67%
Rainfall 0.00 in
Snow Depth Not available.
UV 0 out of 12
Pollen 2.00 out of 12
Air Quality Not available.
Flu Activity Sporadic
METAR K2W6 210145Z AUTO 20003KT 10SM CLR 14/06 A2999 RMK AO1

More Conditions Fewer Conditions

Pressure 29.99 in
Visibility 10.0 miles
Clouds Clear
Dew Point 47 °F
Humidity 67%
Rainfall 0.00 in
Snow Depth Not available.
UV 0 out of 12
Pollen 2.00 out of 12
Air Quality Not available.
Flu Activity Sporadic
METAR K2W6 210145Z AUTO 20003KT 10SM CLR 14/06 A2999 RMK AO1

More Conditions Fewer Conditions

10-Day Weather Forecast

Almanac

Astronomy

Oct. 20, 2014 Rise Set
Actual Time 7:20 AM EDT 6:22 PM EDT
Civil Twilight 6:53 AM EDT 6:48 PM EDT
Nautical Twilight 6:23 AM EDT 7:19 PM EDT
Astronomical Twilight 5:52 AM EDT 7:50 PM EDT
Moon 4:09 AM EDT (10/20) 4:41 PM EDT (10/20)
Length of Visible Light 11h 55m
Length of Day
11h 01m
Tomorrow will be 2m 19s shorter.
Waning Crescent, 8% of the Moon is Illuminated
Today
Waning Crescent
Oct 23
New
Oct 30
First Quarter
Nov 6
Full
Nov 14
Last Quarter

Today's Extremes

State Highs State Lows

Community

WunderPhotos

Upload Photos

1,763,572 photos uploaded!

Nearby

Snow Depth

Station Depth Elevation
No new snow has been reported.

Earthquake Activity

City Distance Mag. Time & Date
No recent earthquake activity has been reported nearby.
Minimum magnitude displayed is 2.5.

Coastal Water Temperatures

Place Temperature
Lewisetta, VA 62.1 °F
Solomons Island, MD 66.0 °F
Bishops Head, MD 57.9 °F

Nearby Weather Stations